sensor_id;sensor_type;location;lat;lon;timestamp;pressure;altitude;pressure_sealevel;temperature;humidity
84994;BME280;75309;44.830;20.460;2024-01-30T00:01:34;103177.59;;;3.11;70.85
84994;BME280;75309;44.830;20.460;2024-01-30T00:04:04;103178.16;;;3.06;70.82
84994;BME280;75309;44.830;20.460;2024-01-30T00:06:32;103176.21;;;3.05;71.23
84994;BME280;75309;44.830;20.460;2024-01-30T00:09:00;103179.88;;;3.09;71.49
84994;BME280;75309;44.830;20.460;2024-01-30T00:11:27;103181.08;;;3.15;71.77
84994;BME280;75309;44.830;20.460;2024-01-30T00:13:56;103177.83;;;3.20;72.13
84994;BME280;75309;44.830;20.460;2024-01-30T00:16:25;103174.38;;;3.23;72.18
84994;BME280;75309;44.830;20.460;2024-01-30T00:18:53;103174.95;;;3.28;72.09
84994;BME280;75309;44.830;20.460;2024-01-30T00:21:22;103169.70;;;3.31;72.14
84994;BME280;75309;44.830;20.460;2024-01-30T00:23:51;103174.84;;;3.32;72.11
84994;BME280;75309;44.830;20.460;2024-01-30T00:26:19;103179.03;;;3.36;71.83
84994;BME280;75309;44.830;20.460;2024-01-30T00:28:47;103183.17;;;3.38;71.59
84994;BME280;75309;44.830;20.460;2024-01-30T00:31:15;103184.80;;;3.39;71.47
84994;BME280;75309;44.830;20.460;2024-01-30T00:33:43;103188.27;;;3.37;71.37
84994;BME280;75309;44.830;20.460;2024-01-30T00:36:11;103187.57;;;3.34;71.20
84994;BME280;75309;44.830;20.460;2024-01-30T00:38:40;103191.05;;;3.29;71.12
84994;BME280;75309;44.830;20.460;2024-01-30T00:41:09;103190.67;;;3.18;71.31
84994;BME280;75309;44.830;20.460;2024-01-30T00:43:37;103190.45;;;3.10;71.14
84994;BME280;75309;44.830;20.460;2024-01-30T00:46:05;103186.37;;;3.07;71.07
84994;BME280;75309;44.830;20.460;2024-01-30T00:48:34;103188.48;;;3.06;71.12
84994;BME280;75309;44.830;20.460;2024-01-30T00:51:02;103193.96;;;3.05;71.35
84994;BME280;75309;44.830;20.460;2024-01-30T00:53:30;103192.00;;;3.05;71.16
84994;BME280;75309;44.830;20.460;2024-01-30T00:55:58;103187.36;;;3.07;71.04
84994;BME280;75309;44.830;20.460;2024-01-30T00:58:26;103182.60;;;3.03;70.98
84994;BME280;75309;44.830;20.460;2024-01-30T01:00:54;103182.66;;;3.01;70.97
84994;BME280;75309;44.830;20.460;2024-01-30T01:03:25;103181.96;;;2.97;70.96
84994;BME280;75309;44.830;20.460;2024-01-30T01:05:53;103179.66;;;2.91;71.00
84994;BME280;75309;44.830;20.460;2024-01-30T01:08:21;103178.95;;;2.84;71.24
84994;BME280;75309;44.830;20.460;2024-01-30T01:10:49;103185.27;;;2.77;71.23
84994;BME280;75309;44.830;20.460;2024-01-30T01:13:18;103183.90;;;2.72;71.51
84994;BME280;75309;44.830;20.460;2024-01-30T01:15:46;103185.41;;;2.66;71.83
84994;BME280;75309;44.830;20.460;2024-01-30T01:18:14;103182.90;;;2.62;71.98
84994;BME280;75309;44.830;20.460;2024-01-30T01:20:42;103181.16;;;2.65;72.22
84994;BME280;75309;44.830;20.460;2024-01-30T01:23:10;103182.20;;;2.69;72.33
84994;BME280;75309;44.830;20.460;2024-01-30T01:25:38;103178.20;;;2.69;72.07
84994;BME280;75309;44.830;20.460;2024-01-30T01:28:06;103176.98;;;2.72;72.07
84994;BME280;75309;44.830;20.460;2024-01-30T01:30:35;103177.09;;;2.76;72.07
84994;BME280;75309;44.830;20.460;2024-01-30T01:33:03;103183.00;;;2.81;71.92
84994;BME280;75309;44.830;20.460;2024-01-30T01:35:32;103184.19;;;2.88;71.95
84994;BME280;75309;44.830;20.460;2024-01-30T01:38:00;103185.08;;;2.92;71.53
84994;BME280;75309;44.830;20.460;2024-01-30T01:40:29;103183.58;;;2.86;71.34
84994;BME280;75309;44.830;20.460;2024-01-30T01:42:57;103186.44;;;2.81;71.22
84994;BME280;75309;44.830;20.460;2024-01-30T01:45:25;103178.48;;;2.82;71.15
84994;BME280;75309;44.830;20.460;2024-01-30T01:47:53;103176.75;;;2.84;70.88
84994;BME280;75309;44.830;20.460;2024-01-30T01:50:22;103174.36;;;2.88;70.71
84994;BME280;75309;44.830;20.460;2024-01-30T01:52:51;103169.42;;;2.94;70.67
84994;BME280;75309;44.830;20.460;2024-01-30T01:55:21;103176.00;;;2.95;70.41
84994;BME280;75309;44.830;20.460;2024-01-30T01:57:50;103180.83;;;2.92;70.23
84994;BME280;75309;44.830;20.460;2024-01-30T02:00:20;103179.10;;;2.81;70.30
84994;BME280;75309;44.830;20.460;2024-01-30T02:02:49;103178.46;;;2.70;70.47
84994;BME280;75309;44.830;20.460;2024-01-30T02:05:18;103179.16;;;2.62;70.52
84994;BME280;75309;44.830;20.460;2024-01-30T02:07:46;103180.45;;;2.57;70.46
84994;BME280;75309;44.830;20.460;2024-01-30T02:10:15;103179.60;;;2.53;70.46
84994;BME280;75309;44.830;20.460;2024-01-30T02:12:43;103177.17;;;2.50;70.48
84994;BME280;75309;44.830;20.460;2024-01-30T02:15:13;103176.52;;;2.49;70.66
84994;BME280;75309;44.830;20.460;2024-01-30T02:17:42;103178.98;;;2.44;70.54
84994;BME280;75309;44.830;20.460;2024-01-30T02:20:10;103179.15;;;2.40;70.72
84994;BME280;75309;44.830;20.460;2024-01-30T02:22:39;103179.54;;;2.37;70.79
84994;BME280;75309;44.830;20.460;2024-01-30T02:25:08;103177.56;;;2.36;71.37
84994;BME280;75309;44.830;20.460;2024-01-30T02:27:36;103176.91;;;2.37;71.21
84994;BME280;75309;44.830;20.460;2024-01-30T02:30:06;103175.73;;;2.38;71.17
84994;BME280;75309;44.830;20.460;2024-01-30T02:32:34;103174.10;;;2.40;71.41
84994;BME280;75309;44.830;20.460;2024-01-30T02:35:02;103171.52;;;2.45;71.70
84994;BME280;75309;44.830;20.460;2024-01-30T02:37:31;103172.80;;;2.53;71.96
84994;BME280;75309;44.830;20.460;2024-01-30T02:39:59;103175.44;;;2.58;72.22
84994;BME280;75309;44.830;20.460;2024-01-30T02:42:27;103175.70;;;2.64;72.18
84994;BME280;75309;44.830;20.460;2024-01-30T02:44:55;103172.42;;;2.71;72.30
84994;BME280;75309;44.830;20.460;2024-01-30T02:47:23;103167.87;;;2.78;72.32
84994;BME280;75309;44.830;20.460;2024-01-30T02:49:51;103167.25;;;2.88;72.27
84994;BME280;75309;44.830;20.460;2024-01-30T02:52:23;103166.08;;;2.99;72.18
84994;BME280;75309;44.830;20.460;2024-01-30T02:54:51;103172.10;;;3.03;72.13
84994;BME280;75309;44.830;20.460;2024-01-30T02:57:19;103176.36;;;3.10;71.90
84994;BME280;75309;44.830;20.460;2024-01-30T02:59:47;103176.95;;;3.13;71.60
84994;BME280;75309;44.830;20.460;2024-01-30T03:02:15;103177.23;;;3.15;71.33
84994;BME280;75309;44.830;20.460;2024-01-30T03:04:43;103176.37;;;3.15;71.12
84994;BME280;75309;44.830;20.460;2024-01-30T03:07:11;103180.94;;;3.14;70.97
84994;BME280;75309;44.830;20.460;2024-01-30T03:09:41;103182.36;;;3.13;70.89
84994;BME280;75309;44.830;20.460;2024-01-30T03:12:09;103179.27;;;3.11;70.80
84994;BME280;75309;44.830;20.460;2024-01-30T03:14:38;103181.19;;;3.09;71.04
84994;BME280;75309;44.830;20.460;2024-01-30T03:17:06;103180.16;;;3.07;71.04
84994;BME280;75309;44.830;20.460;2024-01-30T03:19:34;103179.48;;;3.06;71.02
84994;BME280;75309;44.830;20.460;2024-01-30T03:22:02;103180.81;;;3.03;71.16
84994;BME280;75309;44.830;20.460;2024-01-30T03:24:31;103178.50;;;3.02;70.93
84994;BME280;75309;44.830;20.460;2024-01-30T03:26:59;103181.36;;;3.00;71.07
84994;BME280;75309;44.830;20.460;2024-01-30T03:29:27;103175.79;;;2.96;70.96
84994;BME280;75309;44.830;20.460;2024-01-30T03:31:55;103179.52;;;2.92;70.97
84994;BME280;75309;44.830;20.460;2024-01-30T03:34:23;103180.92;;;2.89;71.15
84994;BME280;75309;44.830;20.460;2024-01-30T03:36:52;103181.04;;;2.82;71.52
84994;BME280;75309;44.830;20.460;2024-01-30T03:39:20;103180.55;;;2.78;71.76
84994;BME280;75309;44.830;20.460;2024-01-30T03:41:48;103178.27;;;2.77;72.03
84994;BME280;75309;44.830;20.460;2024-01-30T03:44:16;103180.58;;;2.81;72.25
84994;BME280;75309;44.830;20.460;2024-01-30T03:46:44;103180.14;;;2.87;72.43
84994;BME280;75309;44.830;20.460;2024-01-30T03:49:12;103186.57;;;2.93;72.28
84994;BME280;75309;44.830;20.460;2024-01-30T03:51:40;103185.09;;;2.96;72.26
84994;BME280;75309;44.830;20.460;2024-01-30T03:54:08;103186.97;;;2.98;72.18
84994;BME280;75309;44.830;20.460;2024-01-30T03:56:37;103188.11;;;2.97;71.88
84994;BME280;75309;44.830;20.460;2024-01-30T03:59:05;103184.25;;;2.96;71.69
84994;BME280;75309;44.830;20.460;2024-01-30T04:01:33;103185.64;;;2.96;71.46
84994;BME280;75309;44.830;20.460;2024-01-30T04:04:01;103181.96;;;2.96;71.27
84994;BME280;75309;44.830;20.460;2024-01-30T04:06:30;103181.12;;;2.91;71.17
84994;BME280;75309;44.830;20.460;2024-01-30T04:08:58;103180.02;;;2.87;71.19
84994;BME280;75309;44.830;20.460;2024-01-30T04:11:26;103181.06;;;2.82;71.21
84994;BME280;75309;44.830;20.460;2024-01-30T04:13:54;103178.30;;;2.77;71.28
84994;BME280;75309;44.830;20.460;2024-01-30T04:16:22;103181.74;;;2.75;71.22
84994;BME280;75309;44.830;20.460;2024-01-30T04:18:51;103175.60;;;2.72;71.08
84994;BME280;75309;44.830;20.460;2024-01-30T04:21:23;103184.58;;;2.68;71.14
84994;BME280;75309;44.830;20.460;2024-01-30T04:23:51;103179.50;;;2.66;71.20
84994;BME280;75309;44.830;20.460;2024-01-30T04:26:19;103181.55;;;2.64;71.23
84994;BME280;75309;44.830;20.460;2024-01-30T04:28:47;103184.31;;;2.63;71.11
84994;BME280;75309;44.830;20.460;2024-01-30T04:31:15;103185.45;;;2.60;71.07
84994;BME280;75309;44.830;20.460;2024-01-30T04:33:43;103187.38;;;2.57;71.06
84994;BME280;75309;44.830;20.460;2024-01-30T04:36:12;103188.74;;;2.56;71.12
84994;BME280;75309;44.830;20.460;2024-01-30T04:38:40;103190.23;;;2.56;71.12
84994;BME280;75309;44.830;20.460;2024-01-30T04:41:08;103190.56;;;2.54;71.26
84994;BME280;75309;44.830;20.460;2024-01-30T04:43:36;103192.95;;;2.56;71.47
84994;BME280;75309;44.830;20.460;2024-01-30T04:46:04;103190.97;;;2.59;71.74
84994;BME280;75309;44.830;20.460;2024-01-30T04:48:33;103192.06;;;2.61;72.01
84994;BME280;75309;44.830;20.460;2024-01-30T04:51:01;103192.77;;;2.64;72.28
84994;BME280;75309;44.830;20.460;2024-01-30T04:53:30;103196.05;;;2.67;72.25
84994;BME280;75309;44.830;20.460;2024-01-30T04:55:59;103202.62;;;2.70;72.30
84994;BME280;75309;44.830;20.460;2024-01-30T04:58:27;103196.90;;;2.73;72.29
84994;BME280;75309;44.830;20.460;2024-01-30T05:00:55;103195.48;;;2.77;72.39
84994;BME280;75309;44.830;20.460;2024-01-30T05:03:25;103196.00;;;2.78;72.32
84994;BME280;75309;44.830;20.460;2024-01-30T05:05:53;103200.30;;;2.80;72.15
84994;BME280;75309;44.830;20.460;2024-01-30T05:08:21;103196.64;;;2.80;72.00
84994;BME280;75309;44.830;20.460;2024-01-30T05:10:49;103193.80;;;2.82;71.88
84994;BME280;75309;44.830;20.460;2024-01-30T05:13:17;103195.48;;;2.83;71.78
84994;BME280;75309;44.830;20.460;2024-01-30T05:15:46;103192.39;;;2.83;71.47
84994;BME280;75309;44.830;20.460;2024-01-30T05:18:14;103196.71;;;2.84;71.32
84994;BME280;75309;44.830;20.460;2024-01-30T05:20:42;103195.95;;;2.85;71.15
84994;BME280;75309;44.830;20.460;2024-01-30T05:23:10;103201.33;;;2.83;70.94
84994;BME280;75309;44.830;20.460;2024-01-30T05:25:38;103200.73;;;2.76;70.98
84994;BME280;75309;44.830;20.460;2024-01-30T05:28:06;103200.66;;;2.70;70.90
84994;BME280;75309;44.830;20.460;2024-01-30T05:30:35;103200.12;;;2.61;71.12
84994;BME280;75309;44.830;20.460;2024-01-30T05:33:03;103206.14;;;2.51;71.44
84994;BME280;75309;44.830;20.460;2024-01-30T05:35:33;103206.22;;;2.45;71.48
84994;BME280;75309;44.830;20.460;2024-01-30T05:38:02;103207.64;;;2.40;71.52
84994;BME280;75309;44.830;20.460;2024-01-30T05:40:31;103208.84;;;2.37;71.64
84994;BME280;75309;44.830;20.460;2024-01-30T05:42:59;103208.67;;;2.35;71.76
84994;BME280;75309;44.830;20.460;2024-01-30T05:45:29;103208.16;;;2.32;71.93
84994;BME280;75309;44.830;20.460;2024-01-30T05:48:03;103208.60;;;2.33;71.73
84994;BME280;75309;44.830;20.460;2024-01-30T05:50:32;103213.91;;;2.32;71.64
84994;BME280;75309;44.830;20.460;2024-01-30T05:53:02;103215.09;;;2.33;71.78
84994;BME280;75309;44.830;20.460;2024-01-30T05:55:31;103219.62;;;2.34;72.25
84994;BME280;75309;44.830;20.460;2024-01-30T05:58:01;103217.17;;;2.36;72.58
84994;BME280;75309;44.830;20.460;2024-01-30T06:00:30;103215.98;;;2.39;72.83
84994;BME280;75309;44.830;20.460;2024-01-30T06:03:01;103219.08;;;2.41;73.29
84994;BME280;75309;44.830;20.460;2024-01-30T06:05:31;103221.45;;;2.45;73.18
84994;BME280;75309;44.830;20.460;2024-01-30T06:07:59;103223.51;;;2.51;73.13
84994;BME280;75309;44.830;20.460;2024-01-30T06:10:28;103227.48;;;2.58;72.81
84994;BME280;75309;44.830;20.460;2024-01-30T06:12:59;103227.48;;;2.64;72.67
84994;BME280;75309;44.830;20.460;2024-01-30T06:15:28;103224.56;;;2.69;72.27
84994;BME280;75309;44.830;20.460;2024-01-30T06:17:58;103227.77;;;2.73;71.94
84994;BME280;75309;44.830;20.460;2024-01-30T06:20:27;103231.21;;;2.78;71.83
84994;BME280;75309;44.830;20.460;2024-01-30T06:22:55;103230.77;;;2.77;71.49
84994;BME280;75309;44.830;20.460;2024-01-30T06:25:23;103229.46;;;2.76;71.37
84994;BME280;75309;44.830;20.460;2024-01-30T06:27:51;103233.77;;;2.77;71.37
84994;BME280;75309;44.830;20.460;2024-01-30T06:30:19;103234.90;;;2.78;71.19
84994;BME280;75309;44.830;20.460;2024-01-30T06:32:48;103236.77;;;2.79;71.28
84994;BME280;75309;44.830;20.460;2024-01-30T06:35:16;103238.58;;;2.79;71.30
84994;BME280;75309;44.830;20.460;2024-01-30T06:37:46;103238.23;;;2.76;71.20
84994;BME280;75309;44.830;20.460;2024-01-30T06:40:14;103237.61;;;2.75;71.06
84994;BME280;75309;44.830;20.460;2024-01-30T06:42:43;103235.98;;;2.74;70.96
84994;BME280;75309;44.830;20.460;2024-01-30T06:45:12;103241.16;;;2.75;70.77
84994;BME280;75309;44.830;20.460;2024-01-30T06:47:40;103240.86;;;2.76;70.64
84994;BME280;75309;44.830;20.460;2024-01-30T06:50:10;103242.67;;;2.77;70.47
84994;BME280;75309;44.830;20.460;2024-01-30T06:52:38;103246.30;;;2.78;70.36
84994;BME280;75309;44.830;20.460;2024-01-30T06:55:06;103245.73;;;2.79;70.20
84994;BME280;75309;44.830;20.460;2024-01-30T06:57:34;103243.68;;;2.78;70.10
84994;BME280;75309;44.830;20.460;2024-01-30T07:00:03;103242.89;;;2.78;70.12
84994;BME280;75309;44.830;20.460;2024-01-30T07:02:31;103241.52;;;2.80;70.00
84994;BME280;75309;44.830;20.460;2024-01-30T07:04:59;103243.17;;;2.86;70.29
84994;BME280;75309;44.830;20.460;2024-01-30T07:07:27;103245.88;;;2.93;70.43
84994;BME280;75309;44.830;20.460;2024-01-30T07:09:56;103251.20;;;3.02;70.30
84994;BME280;75309;44.830;20.460;2024-01-30T07:12:25;103250.54;;;3.11;70.36
84994;BME280;75309;44.830;20.460;2024-01-30T07:14:54;103252.52;;;3.18;70.45
84994;BME280;75309;44.830;20.460;2024-01-30T07:17:24;103254.19;;;3.28;70.18
84994;BME280;75309;44.830;20.460;2024-01-30T07:19:52;103255.09;;;3.34;69.90
84994;BME280;75309;44.830;20.460;2024-01-30T07:22:21;103259.06;;;3.38;69.30
84994;BME280;75309;44.830;20.460;2024-01-30T07:24:49;103255.83;;;3.41;68.99
84994;BME280;75309;44.830;20.460;2024-01-30T07:27:18;103254.52;;;3.44;68.69
84994;BME280;75309;44.830;20.460;2024-01-30T07:29:47;103257.33;;;3.46;68.62
84994;BME280;75309;44.830;20.460;2024-01-30T07:32:15;103255.18;;;3.51;68.59
84994;BME280;75309;44.830;20.460;2024-01-30T07:34:42;103251.30;;;3.57;68.35
84994;BME280;75309;44.830;20.460;2024-01-30T07:37:29;103255.34;;;3.62;68.15
84994;BME280;75309;44.830;20.460;2024-01-30T07:39:58;103255.05;;;3.66;67.89
84994;BME280;75309;44.830;20.460;2024-01-30T07:42:26;103258.86;;;3.66;67.78
84994;BME280;75309;44.830;20.460;2024-01-30T07:44:54;103256.91;;;3.64;67.70
84994;BME280;75309;44.830;20.460;2024-01-30T07:47:22;103256.06;;;3.60;67.54
84994;BME280;75309;44.830;20.460;2024-01-30T07:49:50;103260.31;;;3.59;67.36
84994;BME280;75309;44.830;20.460;2024-01-30T07:52:19;103259.91;;;3.60;67.43
84994;BME280;75309;44.830;20.460;2024-01-30T07:54:47;103260.14;;;3.60;67.31
84994;BME280;75309;44.830;20.460;2024-01-30T07:57:15;103256.94;;;3.62;67.38
84994;BME280;75309;44.830;20.460;2024-01-30T07:59:45;103261.22;;;3.66;67.19
84994;BME280;75309;44.830;20.460;2024-01-30T08:02:13;103259.02;;;3.70;67.42
84994;BME280;75309;44.830;20.460;2024-01-30T08:04:43;103253.95;;;3.75;67.38
84994;BME280;75309;44.830;20.460;2024-01-30T08:07:11;103257.41;;;3.81;67.34
84994;BME280;75309;44.830;20.460;2024-01-30T08:09:39;103252.31;;;3.88;67.36
84994;BME280;75309;44.830;20.460;2024-01-30T08:12:07;103253.91;;;3.94;66.99
84994;BME280;75309;44.830;20.460;2024-01-30T08:14:35;103253.58;;;3.98;66.58
84994;BME280;75309;44.830;20.460;2024-01-30T08:17:03;103250.20;;;4.02;66.49
84994;BME280;75309;44.830;20.460;2024-01-30T08:19:31;103254.38;;;4.06;66.16
84994;BME280;75309;44.830;20.460;2024-01-30T08:22:00;103254.11;;;4.08;65.90
84994;BME280;75309;44.830;20.460;2024-01-30T08:24:28;103252.33;;;4.09;65.84
84994;BME280;75309;44.830;20.460;2024-01-30T08:26:59;103258.61;;;4.12;65.45
84994;BME280;75309;44.830;20.460;2024-01-30T08:29:29;103258.58;;;4.16;65.38
84994;BME280;75309;44.830;20.460;2024-01-30T08:32:00;103260.42;;;4.19;65.38
84994;BME280;75309;44.830;20.460;2024-01-30T08:34:37;103259.33;;;4.19;65.14
84994;BME280;75309;44.830;20.460;2024-01-30T08:37:05;103257.80;;;4.21;64.85
84994;BME280;75309;44.830;20.460;2024-01-30T08:39:37;103259.70;;;4.22;64.89
84994;BME280;75309;44.830;20.460;2024-01-30T08:42:05;103261.94;;;4.26;64.79
84994;BME280;75309;44.830;20.460;2024-01-30T08:44:33;103261.42;;;4.29;64.38
84994;BME280;75309;44.830;20.460;2024-01-30T08:47:01;103262.35;;;4.34;64.17
84994;BME280;75309;44.830;20.460;2024-01-30T08:49:31;103264.81;;;4.39;63.65
84994;BME280;75309;44.830;20.460;2024-01-30T08:51:59;103261.92;;;4.45;63.64
84994;BME280;75309;44.830;20.460;2024-01-30T08:54:27;103263.33;;;4.48;63.28
84994;BME280;75309;44.830;20.460;2024-01-30T08:56:55;103263.57;;;4.52;62.87
84994;BME280;75309;44.830;20.460;2024-01-30T08:59:26;103266.08;;;4.54;62.74
84994;BME280;75309;44.830;20.460;2024-01-30T09:01:54;103267.60;;;4.59;62.76
84994;BME280;75309;44.830;20.460;2024-01-30T09:04:39;103269.39;;;4.64;62.41
84994;BME280;75309;44.830;20.460;2024-01-30T09:07:09;103269.34;;;4.70;62.22
84994;BME280;75309;44.830;20.460;2024-01-30T09:09:39;103269.31;;;4.76;62.04
84994;BME280;75309;44.830;20.460;2024-01-30T09:12:09;103267.91;;;4.81;61.98
84994;BME280;75309;44.830;20.460;2024-01-30T09:14:40;103269.06;;;4.90;61.80
84994;BME280;75309;44.830;20.460;2024-01-30T09:17:11;103264.08;;;4.97;61.49
84994;BME280;75309;44.830;20.460;2024-01-30T09:19:40;103262.73;;;5.04;61.06
84994;BME280;75309;44.830;20.460;2024-01-30T09:22:10;103261.34;;;5.10;60.74
84994;BME280;75309;44.830;20.460;2024-01-30T09:24:38;103259.34;;;5.14;60.35
84994;BME280;75309;44.830;20.460;2024-01-30T09:27:06;103257.99;;;5.15;60.09
84994;BME280;75309;44.830;20.460;2024-01-30T09:29:34;103252.90;;;5.18;59.98
84994;BME280;75309;44.830;20.460;2024-01-30T09:32:05;103251.09;;;5.22;59.76
84994;BME280;75309;44.830;20.460;2024-01-30T09:34:34;103245.23;;;5.26;59.29
84994;BME280;75309;44.830;20.460;2024-01-30T09:37:04;103245.57;;;5.29;59.36
84994;BME280;75309;44.830;20.460;2024-01-30T09:39:32;103248.42;;;5.32;58.95
84994;BME280;75309;44.830;20.460;2024-01-30T09:44:51;103240.95;;;5.35;58.11
84994;BME280;75309;44.830;20.460;2024-01-30T09:47:20;103245.05;;;5.37;57.77
84994;BME280;75309;44.830;20.460;2024-01-30T09:49:48;103237.15;;;5.40;57.42
84994;BME280;75309;44.830;20.460;2024-01-30T09:52:17;103238.67;;;5.43;56.95
84994;BME280;75309;44.830;20.460;2024-01-30T09:54:47;103233.55;;;5.48;56.90
84994;BME280;75309;44.830;20.460;2024-01-30T09:57:17;103232.40;;;5.50;56.34
84994;BME280;75309;44.830;20.460;2024-01-30T09:59:45;103227.26;;;5.51;56.29
84994;BME280;75309;44.830;20.460;2024-01-30T10:02:13;103222.96;;;5.55;55.80
84994;BME280;75309;44.830;20.460;2024-01-30T10:04:41;103219.27;;;5.57;55.36
84994;BME280;75309;44.830;20.460;2024-01-30T10:07:10;103216.95;;;5.58;54.72
84994;BME280;75309;44.830;20.460;2024-01-30T10:09:45;103218.27;;;5.59;55.12
84994;BME280;75309;44.830;20.460;2024-01-30T10:12:13;103215.39;;;5.59;54.51
84994;BME280;75309;44.830;20.460;2024-01-30T10:14:42;103213.27;;;5.62;54.77
84994;BME280;75309;44.830;20.460;2024-01-30T10:17:12;103213.15;;;5.65;54.58
84994;BME280;75309;44.830;20.460;2024-01-30T10:19:54;103212.93;;;5.72;54.98
84994;BME280;75309;44.830;20.460;2024-01-30T10:22:22;103213.11;;;5.81;54.72
84994;BME280;75309;44.830;20.460;2024-01-30T10:24:51;103214.70;;;5.86;54.68
84994;BME280;75309;44.830;20.460;2024-01-30T10:27:27;103208.52;;;5.93;54.48
84994;BME280;75309;44.830;20.460;2024-01-30T10:29:55;103208.55;;;5.97;54.06
84994;BME280;75309;44.830;20.460;2024-01-30T10:32:23;103208.24;;;5.98;54.27
84994;BME280;75309;44.830;20.460;2024-01-30T10:34:53;103206.24;;;6.00;53.94
84994;BME280;75309;44.830;20.460;2024-01-30T10:37:25;103205.46;;;6.01;53.66
84994;BME280;75309;44.830;20.460;2024-01-30T10:39:54;103201.83;;;6.03;53.89
84994;BME280;75309;44.830;20.460;2024-01-30T10:42:26;103197.46;;;6.06;53.59
84994;BME280;75309;44.830;20.460;2024-01-30T10:45:10;103196.41;;;6.08;53.47
84994;BME280;75309;44.830;20.460;2024-01-30T10:48:03;103190.11;;;6.12;53.29
84994;BME280;75309;44.830;20.460;2024-01-30T10:50:32;103185.57;;;6.15;53.02
84994;BME280;75309;44.830;20.460;2024-01-30T10:53:12;103180.51;;;6.19;52.77
84994;BME280;75309;44.830;20.460;2024-01-30T10:55:41;103179.17;;;6.21;52.31
84994;BME280;75309;44.830;20.460;2024-01-30T10:58:09;103175.72;;;6.23;52.44
84994;BME280;75309;44.830;20.460;2024-01-30T11:00:39;103174.52;;;6.27;52.72
84994;BME280;75309;44.830;20.460;2024-01-30T11:03:07;103174.48;;;6.31;52.28
84994;BME280;75309;44.830;20.460;2024-01-30T11:05:40;103169.35;;;6.34;52.49
84994;BME280;75309;44.830;20.460;2024-01-30T11:08:22;103165.88;;;6.38;52.70
84994;BME280;75309;44.830;20.460;2024-01-30T11:10:56;103167.89;;;6.44;52.57
84994;BME280;75309;44.830;20.460;2024-01-30T11:13:31;103166.18;;;6.49;52.57
84994;BME280;75309;44.830;20.460;2024-01-30T11:16:02;103162.83;;;6.54;52.31
84994;BME280;75309;44.830;20.460;2024-01-30T11:18:32;103157.45;;;6.58;52.22
84994;BME280;75309;44.830;20.460;2024-01-30T11:21:01;103153.67;;;6.65;52.43
84994;BME280;75309;44.830;20.460;2024-01-30T11:23:30;103151.96;;;6.70;52.22
84994;BME280;75309;44.830;20.460;2024-01-30T11:26:01;103150.87;;;6.72;52.51
84994;BME280;75309;44.830;20.460;2024-01-30T11:28:33;103148.45;;;6.72;51.93
84994;BME280;75309;44.830;20.460;2024-01-30T11:31:03;103146.18;;;6.73;51.98
84994;BME280;75309;44.830;20.460;2024-01-30T11:33:32;103144.91;;;6.74;51.47
84994;BME280;75309;44.830;20.460;2024-01-30T11:36:02;103147.39;;;6.75;51.12
84994;BME280;75309;44.830;20.460;2024-01-30T11:38:31;103146.08;;;6.75;50.78
84994;BME280;75309;44.830;20.460;2024-01-30T11:41:02;103146.30;;;6.77;50.83
84994;BME280;75309;44.830;20.460;2024-01-30T11:43:31;103143.40;;;6.79;50.24
84994;BME280;75309;44.830;20.460;2024-01-30T11:46:02;103141.69;;;6.81;50.61
84994;BME280;75309;44.830;20.460;2024-01-30T11:48:30;103142.44;;;6.83;51.49
84994;BME280;75309;44.830;20.460;2024-01-30T11:50:59;103137.90;;;6.80;52.38
84994;BME280;75309;44.830;20.460;2024-01-30T11:53:27;103136.30;;;6.72;52.85
84994;BME280;75309;44.830;20.460;2024-01-30T11:55:56;103127.06;;;6.67;53.03
84994;BME280;75309;44.830;20.460;2024-01-30T11:58:27;103123.52;;;6.62;53.21
84994;BME280;75309;44.830;20.460;2024-01-30T12:00:55;103118.96;;;6.57;53.22
84994;BME280;75309;44.830;20.460;2024-01-30T12:03:24;103115.91;;;6.54;53.38
84994;BME280;75309;44.830;20.460;2024-01-30T12:06:03;103112.46;;;6.50;53.96
84994;BME280;75309;44.830;20.460;2024-01-30T12:08:33;103117.70;;;6.47;54.54
84994;BME280;75309;44.830;20.460;2024-01-30T12:11:01;103114.11;;;6.45;54.51
84994;BME280;75309;44.830;20.460;2024-01-30T12:13:30;103110.62;;;6.44;54.31
84994;BME280;75309;44.830;20.460;2024-01-30T12:16:00;103111.25;;;6.43;54.28
84994;BME280;75309;44.830;20.460;2024-01-30T12:18:29;103105.92;;;6.45;54.12
84994;BME280;75309;44.830;20.460;2024-01-30T12:21:19;103100.29;;;6.46;53.85
84994;BME280;75309;44.830;20.460;2024-01-30T12:23:47;103098.81;;;6.50;53.74
84994;BME280;75309;44.830;20.460;2024-01-30T12:26:17;103097.63;;;6.52;53.54
84994;BME280;75309;44.830;20.460;2024-01-30T12:28:49;103093.15;;;6.53;53.43
84994;BME280;75309;44.830;20.460;2024-01-30T12:31:25;103093.17;;;6.51;53.16
84994;BME280;75309;44.830;20.460;2024-01-30T12:33:54;103091.89;;;6.52;53.02
84994;BME280;75309;44.830;20.460;2024-01-30T12:36:25;103088.52;;;6.53;52.93
84994;BME280;75309;44.830;20.460;2024-01-30T12:38:53;103086.34;;;6.55;52.63
84994;BME280;75309;44.830;20.460;2024-01-30T12:41:23;103087.39;;;6.55;52.38
84994;BME280;75309;44.830;20.460;2024-01-30T12:43:59;103083.67;;;6.55;52.03
84994;BME280;75309;44.830;20.460;2024-01-30T12:46:28;103081.77;;;6.53;51.69
84994;BME280;75309;44.830;20.460;2024-01-30T12:48:57;103082.14;;;6.54;51.38
84994;BME280;75309;44.830;20.460;2024-01-30T12:51:25;103081.70;;;6.54;51.30
84994;BME280;75309;44.830;20.460;2024-01-30T12:53:53;103079.44;;;6.54;51.14
84994;BME280;75309;44.830;20.460;2024-01-30T12:56:22;103078.54;;;6.53;50.97
84994;BME280;75309;44.830;20.460;2024-01-30T12:58:50;103079.17;;;6.53;50.68
84994;BME280;75309;44.830;20.460;2024-01-30T13:01:21;103075.34;;;6.52;50.58
84994;BME280;75309;44.830;20.460;2024-01-30T13:03:52;103075.39;;;6.54;50.29